createdAt,value
2022-11-19T00:01:49.124Z,5.30
2022-11-19T00:04:15.402Z,4.90
2022-11-19T00:06:41.631Z,5.10
2022-11-19T00:09:11.028Z,5.10
2022-11-19T00:11:55.994Z,5.10
2022-11-19T00:14:23.660Z,4.90
2022-11-19T00:16:49.992Z,5.07
2022-11-19T00:19:16.480Z,5.10
2022-11-19T00:21:42.943Z,5.20
2022-11-19T00:24:09.301Z,5.00
2022-11-19T00:26:35.873Z,5.10
2022-11-19T00:29:02.210Z,5.20
2022-11-19T00:31:28.647Z,5.40
2022-11-19T00:33:54.965Z,5.10
2022-11-19T00:36:21.810Z,5.20
2022-11-19T00:38:48.106Z,5.27
2022-11-19T00:41:14.355Z,5.00
2022-11-19T00:43:46.831Z,5.03
2022-11-19T00:46:16.055Z,5.23
2022-11-19T00:48:42.365Z,5.33
2022-11-19T00:51:09.379Z,5.00
2022-11-19T00:53:35.994Z,5.03
2022-11-19T00:56:03.306Z,5.20
2022-11-19T00:58:29.593Z,5.10
2022-11-19T01:00:55.997Z,5.20
2022-11-19T01:03:22.922Z,5.20
2022-11-19T01:05:49.290Z,5.10
2022-11-19T01:08:15.587Z,5.20
2022-11-19T01:10:42.505Z,5.20
2022-11-19T01:13:27.423Z,5.17
2022-11-19T01:15:53.676Z,5.30
2022-11-19T01:18:20.193Z,5.13
2022-11-19T01:20:46.862Z,5.00
2022-11-19T01:23:13.131Z,5.10
2022-11-19T01:25:39.473Z,4.87
2022-11-19T01:28:06.081Z,5.13
2022-11-19T01:30:32.719Z,5.13
2022-11-19T01:32:58.983Z,5.13
2022-11-19T01:35:25.327Z,5.20
2022-11-19T01:37:52.863Z,4.90
2022-11-19T01:40:19.139Z,5.00
2022-11-19T01:42:51.236Z,5.07
2022-11-19T01:45:36.205Z,5.10
2022-11-19T01:48:05.487Z,5.13
2022-11-19T01:50:33.355Z,5.07
2022-11-19T01:52:59.722Z,5.00
2022-11-19T01:55:26.676Z,5.30
2022-11-19T01:57:57.318Z,5.10
2022-11-19T02:00:23.598Z,4.90
2022-11-19T02:02:50.096Z,5.00
2022-11-19T02:05:16.821Z,5.00
2022-11-19T02:07:45.265Z,4.73
2022-11-19T02:10:11.732Z,5.17
2022-11-19T02:12:43.194Z,4.93
2022-11-19T02:15:09.497Z,5.10
2022-11-19T02:17:35.721Z,5.00
2022-11-19T02:20:05.008Z,5.17
2022-11-19T02:22:40.363Z,5.10
2022-11-19T02:25:12.507Z,5.10
2022-11-19T02:27:57.202Z,5.10
2022-11-19T02:30:23.546Z,5.23
2022-11-19T02:32:55.869Z,5.00
2022-11-19T02:35:28.331Z,5.00
2022-11-19T02:38:03.477Z,5.00
2022-11-19T02:40:33.385Z,5.00
2022-11-19T02:43:04.462Z,5.10
2022-11-19T02:45:43.746Z,5.20
2022-11-19T02:48:16.060Z,5.00
2022-11-19T02:50:44.985Z,5.10
2022-11-19T02:53:11.221Z,5.10
2022-11-19T02:55:38.353Z,5.07
2022-11-19T02:58:10.028Z,5.00
2022-11-19T03:01:01.174Z,5.07
2022-11-19T03:03:46.585Z,4.97
2022-11-19T03:06:15.686Z,5.00
2022-11-19T03:08:42.562Z,5.10
2022-11-19T03:11:29.095Z,5.00
2022-11-19T03:14:19.842Z,5.10
2022-11-19T03:16:57.598Z,5.00
2022-11-19T03:19:33.096Z,5.10
2022-11-19T03:21:59.356Z,4.90
2022-11-19T03:24:30.995Z,5.00
2022-11-19T03:27:04.257Z,5.20
2022-11-19T03:29:33.037Z,5.03
2022-11-19T03:32:03.782Z,5.00
2022-11-19T03:34:30.990Z,5.00
2022-11-19T03:36:59.587Z,4.87
2022-11-19T03:39:25.857Z,5.10
2022-11-19T03:41:53.099Z,4.83
2022-11-19T03:44:30.387Z,5.10
2022-11-19T03:47:02.107Z,5.07
2022-11-19T03:49:31.622Z,5.10
2022-11-19T03:52:10.296Z,4.90
2022-11-19T03:54:37.755Z,5.10
2022-11-19T03:57:05.458Z,5.10
2022-11-19T03:59:31.743Z,5.47
2022-11-19T04:02:01.366Z,5.23
2022-11-19T04:04:37.328Z,4.97
2022-11-19T04:07:08.021Z,5.20
2022-11-19T04:09:34.426Z,5.10
2022-11-19T04:12:01.141Z,4.90
2022-11-19T04:14:27.522Z,5.10
2022-11-19T04:16:53.804Z,4.90
2022-11-19T04:19:20.334Z,5.10
2022-11-19T04:21:46.881Z,5.00
2022-11-19T04:24:13.161Z,5.30
2022-11-19T04:26:39.394Z,5.20
2022-11-19T04:29:05.622Z,5.20
2022-11-19T04:31:31.878Z,5.10
2022-11-19T04:33:58.111Z,5.30
2022-11-19T04:36:24.352Z,5.33
2022-11-19T04:38:50.638Z,5.40
2022-11-19T04:41:16.891Z,5.20
2022-11-19T04:43:43.134Z,5.30
2022-11-19T04:46:09.356Z,5.33
2022-11-19T04:48:35.593Z,5.47
2022-11-19T04:51:01.864Z,5.60
2022-11-19T04:53:28.254Z,5.50
2022-11-19T04:55:54.507Z,5.40
2022-11-19T04:58:20.745Z,5.30
2022-11-19T05:00:48.025Z,5.30
2022-11-19T05:03:14.433Z,5.40
2022-11-19T05:05:40.668Z,5.50
2022-11-19T05:08:06.953Z,5.50
2022-11-19T05:10:33.215Z,5.70
2022-11-19T05:12:59.447Z,5.60
2022-11-19T05:15:25.703Z,5.80
2022-11-19T05:17:51.963Z,5.87
2022-11-19T05:20:18.192Z,5.60
2022-11-19T05:22:44.401Z,5.70
2022-11-19T05:25:10.662Z,5.67
2022-11-19T05:27:36.899Z,5.70
2022-11-19T05:30:04.404Z,5.70
2022-11-19T05:32:30.668Z,5.80
2022-11-19T05:34:56.882Z,5.90
2022-11-19T05:37:23.113Z,5.57
2022-11-19T05:39:49.351Z,5.70
2022-11-19T05:42:15.589Z,5.80
2022-11-19T05:44:41.817Z,5.90
2022-11-19T05:47:08.058Z,5.80
2022-11-19T05:49:34.314Z,5.70
2022-11-19T05:52:00.579Z,5.60
2022-11-19T05:54:26.872Z,5.90
2022-11-19T05:56:53.139Z,5.77
2022-11-19T05:59:20.526Z,6.00
2022-11-19T06:01:47.059Z,5.73
2022-11-19T06:04:13.292Z,5.90
2022-11-19T06:06:39.685Z,6.00
2022-11-19T06:09:05.943Z,6.10
2022-11-19T06:11:47.578Z,6.00
2022-11-19T06:14:14.603Z,6.00
2022-11-19T06:16:40.918Z,6.00
2022-11-19T06:19:07.142Z,6.07
2022-11-19T06:21:33.372Z,6.13
2022-11-19T06:23:59.665Z,6.00
2022-11-19T06:26:27.023Z,5.80
2022-11-19T06:28:53.434Z,6.10
2022-11-19T06:31:19.687Z,6.00
2022-11-19T06:33:45.893Z,6.10
2022-11-19T06:36:12.209Z,5.90
2022-11-19T06:38:38.480Z,6.30
2022-11-19T06:41:04.779Z,6.20
2022-11-19T06:43:30.985Z,6.00
2022-11-19T06:48:33.173Z,6.10
2022-11-19T06:51:01.477Z,6.00
2022-11-19T06:53:28.126Z,6.20
2022-11-19T06:56:01.192Z,6.20
2022-11-19T06:58:28.118Z,5.90
2022-11-19T07:00:54.622Z,6.20
2022-11-19T07:03:21.115Z,6.00
2022-11-19T07:05:54.136Z,6.00
2022-11-19T07:08:20.387Z,6.30
2022-11-19T07:10:46.611Z,6.23
2022-11-19T07:13:13.143Z,6.10
2022-11-19T07:15:39.359Z,6.00
2022-11-19T07:18:05.678Z,6.00
2022-11-19T07:20:31.908Z,6.10
2022-11-19T07:22:59.497Z,6.17
2022-11-19T07:25:26.088Z,6.00
2022-11-19T07:27:52.481Z,6.20
2022-11-19T07:30:18.705Z,6.20
2022-11-19T07:32:44.959Z,6.10
2022-11-19T07:35:11.883Z,6.10
2022-11-19T07:37:38.398Z,6.10
2022-11-19T07:40:05.447Z,6.20
2022-11-19T07:42:50.212Z,6.20
2022-11-19T07:45:17.232Z,6.40
2022-11-19T07:47:43.470Z,6.20
2022-11-19T07:50:09.888Z,6.27
2022-11-19T07:52:36.251Z,6.23
2022-11-19T07:55:02.554Z,6.30
2022-11-19T07:57:30.456Z,6.40
2022-11-19T07:59:56.919Z,6.00
2022-11-19T08:02:23.183Z,6.17
2022-11-19T08:04:49.423Z,6.13
2022-11-19T08:07:15.736Z,6.20
2022-11-19T08:09:42.055Z,5.90
2022-11-19T08:12:08.302Z,6.00
2022-11-19T08:14:34.532Z,6.57
2022-11-19T08:17:19.713Z,6.30
2022-11-19T08:19:45.966Z,6.30
2022-11-19T08:22:12.319Z,6.20
2022-11-19T08:24:38.565Z,6.10
2022-11-19T08:27:05.427Z,6.27
2022-11-19T08:29:31.901Z,6.00
2022-11-19T08:31:58.220Z,6.20
2022-11-19T08:34:24.961Z,6.20
2022-11-19T08:36:51.309Z,6.20
2022-11-19T08:39:17.603Z,6.40
2022-11-19T08:42:02.524Z,6.40
2022-11-19T08:44:28.760Z,6.10
2022-11-19T08:46:55.099Z,6.27
2022-11-19T08:49:21.490Z,6.40
2022-11-19T08:51:47.699Z,6.20
2022-11-19T08:54:13.923Z,6.20
2022-11-19T08:56:40.239Z,6.20
2022-11-19T08:59:06.469Z,6.10
2022-11-19T09:01:32.748Z,6.00
2022-11-19T09:03:59.041Z,6.47
2022-11-19T09:06:25.362Z,6.30
2022-11-19T09:08:51.766Z,6.10
2022-11-19T09:11:19.151Z,6.30
2022-11-19T09:13:45.554Z,6.20
2022-11-19T09:16:12.209Z,6.40
2022-11-19T09:18:39.967Z,6.40
2022-11-19T09:21:07.034Z,6.30
2022-11-19T09:23:33.289Z,6.30
2022-11-19T09:26:03.885Z,6.60
2022-11-19T09:28:30.855Z,6.53
2022-11-19T09:31:01.479Z,6.30
2022-11-19T09:33:29.773Z,6.20
2022-11-19T09:35:56.032Z,6.20
2022-11-19T09:38:22.280Z,6.33
2022-11-19T09:40:52.717Z,6.30
2022-11-19T09:43:18.977Z,6.07
2022-11-19T09:46:04.024Z,6.20
2022-11-19T09:48:37.645Z,6.20
2022-11-19T09:51:14.885Z,6.10
2022-11-19T09:53:54.064Z,6.40
2022-11-19T09:56:26.129Z,6.47
2022-11-19T09:58:52.699Z,6.40
2022-11-19T10:01:19.117Z,6.40
2022-11-19T10:03:49.262Z,6.50
2022-11-19T10:06:15.521Z,6.60
2022-11-19T10:09:04.754Z,6.57
2022-11-19T10:11:36.953Z,6.20
2022-11-19T10:14:07.455Z,6.00
2022-11-19T10:16:39.397Z,6.37
2022-11-19T10:19:14.925Z,6.20
2022-11-19T10:21:41.173Z,6.13
2022-11-19T10:24:18.056Z,6.10
2022-11-19T10:26:55.308Z,6.60
2022-11-19T10:29:23.298Z,6.10
2022-11-19T10:31:50.721Z,6.43
2022-11-19T10:34:27.230Z,6.60
2022-11-19T10:36:58.510Z,6.30
2022-11-19T10:39:30.866Z,6.30
2022-11-19T10:42:07.785Z,6.40
2022-11-19T10:44:41.969Z,6.40
2022-11-19T10:47:34.548Z,6.40
2022-11-19T10:50:00.806Z,6.40
2022-11-19T10:52:29.057Z,6.20
2022-11-19T10:54:57.919Z,6.03
2022-11-19T10:57:24.626Z,6.07
2022-11-19T10:59:52.277Z,6.40
2022-11-19T11:02:26.635Z,6.23
2022-11-19T11:05:08.383Z,6.20
2022-11-19T11:07:49.566Z,6.20
2022-11-19T11:10:28.642Z,6.20
2022-11-19T11:13:15.036Z,6.30
2022-11-19T11:15:45.217Z,6.37
2022-11-19T11:18:12.849Z,6.57
2022-11-19T11:20:44.844Z,6.30
2022-11-19T11:23:28.158Z,6.50
2022-11-19T11:25:54.403Z,6.70
2022-11-19T11:28:21.667Z,6.27
2022-11-19T11:31:05.269Z,6.43
2022-11-19T11:33:42.169Z,6.53
2022-11-19T11:36:13.731Z,6.10
2022-11-19T11:38:42.384Z,6.20
2022-11-19T11:44:01.989Z,6.57
2022-11-19T11:46:45.380Z,6.30
2022-11-19T11:49:23.898Z,6.50
2022-11-19T11:52:10.668Z,6.43
2022-11-19T11:54:37.895Z,6.50
2022-11-19T11:57:20.790Z,6.40
2022-11-19T11:59:47.045Z,6.20
2022-11-19T12:02:21.841Z,6.20
2022-11-19T12:04:49.915Z,6.47
2022-11-19T12:07:24.717Z,6.63
2022-11-19T12:10:09.627Z,6.00
2022-11-19T12:12:42.926Z,6.10
2022-11-19T12:15:09.160Z,6.30
2022-11-19T12:17:38.169Z,6.07
2022-11-19T12:20:08.213Z,6.30
2022-11-19T12:22:45.229Z,6.30
2022-11-19T12:25:19.525Z,6.30
2022-11-19T12:28:04.191Z,6.10
2022-11-19T12:30:33.042Z,6.20
2022-11-19T12:33:11.633Z,6.10
2022-11-19T12:35:44.389Z,6.20
2022-11-19T12:38:22.990Z,6.23
2022-11-19T12:41:08.045Z,6.40
2022-11-19T12:43:46.234Z,6.40
2022-11-19T12:46:20.162Z,6.40
2022-11-19T12:48:59.345Z,6.20
2022-11-19T12:51:47.803Z,6.10
2022-11-19T12:54:27.901Z,6.10
2022-11-19T12:57:21.550Z,6.40
2022-11-19T13:00:05.771Z,6.20
2022-11-19T13:02:39.936Z,6.20
2022-11-19T13:05:06.298Z,6.40
2022-11-19T13:07:36.092Z,6.07
2022-11-19T13:10:05.606Z,6.17
2022-11-19T13:12:42.725Z,6.40
2022-11-19T13:15:15.150Z,6.43
2022-11-19T13:17:44.453Z,6.70
2022-11-19T13:20:16.354Z,6.23
2022-11-19T13:22:45.381Z,6.33
2022-11-19T13:25:24.223Z,6.20
2022-11-19T13:27:51.774Z,6.57
2022-11-19T13:30:18.099Z,6.17
2022-11-19T13:33:04.609Z,6.10
2022-11-19T13:35:42.873Z,6.47
2022-11-19T13:38:16.840Z,6.10
2022-11-19T13:40:56.695Z,6.33
2022-11-19T13:43:41.422Z,6.20
2022-11-19T13:46:10.433Z,6.00
2022-11-19T13:48:40.005Z,6.20
2022-11-19T13:51:09.719Z,6.60
2022-11-19T13:53:41.975Z,6.40
2022-11-19T13:56:13.914Z,6.33
2022-11-19T13:58:45.576Z,6.53
2022-11-19T14:01:14.596Z,6.10
2022-11-19T14:03:51.892Z,6.20
2022-11-19T14:06:27.285Z,6.20
2022-11-19T14:09:02.747Z,6.30
2022-11-19T14:11:32.050Z,6.70
2022-11-19T14:14:30.559Z,6.30
2022-11-19T14:17:18.964Z,6.60
2022-11-19T14:20:12.300Z,6.30
2022-11-19T14:22:57.093Z,6.40
2022-11-19T14:26:00.667Z,6.33
2022-11-19T14:28:45.928Z,6.30
2022-11-19T14:31:12.599Z,6.50
2022-11-19T14:33:41.853Z,6.30
2022-11-19T14:36:11.946Z,6.40
2022-11-19T14:38:40.600Z,6.30
2022-11-19T14:41:15.526Z,6.20
2022-11-19T14:44:07.081Z,6.50
2022-11-19T14:46:33.595Z,6.53
2022-11-19T14:49:01.390Z,6.50
2022-11-19T14:51:30.742Z,6.50
2022-11-19T14:54:06.435Z,6.30
2022-11-19T14:56:35.258Z,6.30
2022-11-19T14:59:10.873Z,6.30
2022-11-19T15:01:49.077Z,6.50
2022-11-19T15:04:15.912Z,6.60
2022-11-19T15:06:44.117Z,6.50
2022-11-19T15:09:10.568Z,6.47
2022-11-19T15:11:55.425Z,6.53
2022-11-19T15:14:27.671Z,6.37
2022-11-19T15:16:54.931Z,6.27
2022-11-19T15:19:39.953Z,6.30
2022-11-19T15:22:17.024Z,6.40
2022-11-19T15:24:55.324Z,6.20
2022-11-19T15:27:33.586Z,6.20
2022-11-19T15:30:02.838Z,6.80
2022-11-19T15:32:38.198Z,6.20
2022-11-19T15:35:16.804Z,6.20
2022-11-19T15:37:43.023Z,6.50
2022-11-19T15:40:12.214Z,6.23
2022-11-19T15:42:43.786Z,6.40
2022-11-19T15:45:16.372Z,6.40
2022-11-19T15:47:45.620Z,6.27
2022-11-19T15:50:16.997Z,6.40
2022-11-19T15:52:56.526Z,6.40
2022-11-19T15:55:25.171Z,6.30
2022-11-19T15:57:56.147Z,6.30
2022-11-19T16:00:23.015Z,6.40
2022-11-19T16:02:50.083Z,6.30
2022-11-19T16:05:21.776Z,6.40
2022-11-19T16:07:48.866Z,6.60
2022-11-19T16:10:27.522Z,6.30
2022-11-19T16:13:18.300Z,6.33
2022-11-19T16:16:10.043Z,6.57
2022-11-19T16:18:49.276Z,6.60
2022-11-19T16:21:22.219Z,6.60
2022-11-19T16:24:07.437Z,6.73
2022-11-19T16:26:40.454Z,6.60
2022-11-19T16:29:07.001Z,6.40
2022-11-19T16:31:33.258Z,6.50
2022-11-19T16:33:59.502Z,7.53
2022-11-19T16:36:26.290Z,6.40
2022-11-19T16:38:53.358Z,6.80
2022-11-19T16:41:42.394Z,6.40
2022-11-19T16:44:13.267Z,6.40
2022-11-19T16:46:39.717Z,6.50
2022-11-19T16:49:12.664Z,6.50
2022-11-19T16:51:40.315Z,6.30
2022-11-19T16:54:09.701Z,6.10
2022-11-19T16:56:37.949Z,6.90
2022-11-19T16:59:04.892Z,6.40
2022-11-19T17:01:31.821Z,6.63
2022-11-19T17:04:07.653Z,6.50
2022-11-19T17:06:36.884Z,6.50
2022-11-19T17:09:04.014Z,6.50
2022-11-19T17:12:04.362Z,6.40
2022-11-19T17:14:30.580Z,6.27
2022-11-19T17:16:57.082Z,6.47
2022-11-19T17:19:24.450Z,6.40
2022-11-19T17:21:54.859Z,6.37
2022-11-19T17:24:26.469Z,6.60
2022-11-19T17:26:53.044Z,6.40
2022-11-19T17:29:22.691Z,6.50
2022-11-19T17:31:50.423Z,6.20
2022-11-19T17:34:26.605Z,6.30
2022-11-19T17:36:52.855Z,6.60
2022-11-19T17:39:25.044Z,6.47
2022-11-19T17:42:14.243Z,6.40
2022-11-19T17:44:41.096Z,6.83
2022-11-19T17:47:21.132Z,6.50
2022-11-19T17:49:48.869Z,6.57
2022-11-19T17:52:25.708Z,6.50
2022-11-19T17:54:53.001Z,6.53
2022-11-19T17:57:19.436Z,6.80
2022-11-19T17:59:45.923Z,6.50
2022-11-19T18:02:13.628Z,6.30
2022-11-19T18:04:40.641Z,6.50
2022-11-19T18:07:06.901Z,6.30
2022-11-19T18:09:35.089Z,6.50
2022-11-19T18:12:01.486Z,6.60
2022-11-19T18:14:27.720Z,6.53
2022-11-19T18:16:53.964Z,6.40
2022-11-19T18:19:24.890Z,6.27
2022-11-19T18:21:52.136Z,6.60
2022-11-19T18:24:18.394Z,6.77
2022-11-19T18:26:44.738Z,6.47
2022-11-19T18:29:11.106Z,6.50
2022-11-19T18:31:48.206Z,6.40
2022-11-19T18:34:24.054Z,6.40
2022-11-19T18:36:50.654Z,6.23
2022-11-19T18:39:17.312Z,6.40
2022-11-19T18:41:43.715Z,6.40
2022-11-19T18:44:32.012Z,6.60
2022-11-19T18:46:58.593Z,6.40
2022-11-19T18:49:25.051Z,6.60
2022-11-19T18:51:51.431Z,6.50
2022-11-19T18:54:17.696Z,6.50
2022-11-19T18:56:43.920Z,6.87
2022-11-19T18:59:11.327Z,6.50
2022-11-19T19:01:38.386Z,6.90
2022-11-19T19:04:05.214Z,6.43
2022-11-19T19:06:31.986Z,6.80
2022-11-19T19:08:58.324Z,6.77
2022-11-19T19:11:43.371Z,6.53
2022-11-19T19:14:09.643Z,6.80
2022-11-19T19:16:35.900Z,6.30
2022-11-19T19:19:03.306Z,6.57
2022-11-19T19:21:30.278Z,6.70
2022-11-19T19:23:56.588Z,6.70
2022-11-19T19:26:24.023Z,6.60
2022-11-19T19:28:54.374Z,11.30
2022-11-19T19:31:21.572Z,6.40
2022-11-19T19:33:49.065Z,6.90
2022-11-19T19:36:16.248Z,6.63
2022-11-19T19:38:42.860Z,6.60
2022-11-19T19:41:38.592Z,6.70
2022-11-19T19:44:05.239Z,6.50
2022-11-19T19:46:32.105Z,6.70
2022-11-19T19:48:58.743Z,6.80
2022-11-19T19:51:29.608Z,6.60
2022-11-19T19:53:56.151Z,6.70
2022-11-19T19:56:23.903Z,6.80
2022-11-19T19:58:50.903Z,6.80
2022-11-19T20:01:19.108Z,6.40
2022-11-19T20:03:48.228Z,6.60
2022-11-19T20:06:18.640Z,7.10
2022-11-19T20:08:45.026Z,6.87
2022-11-19T20:11:13.306Z,6.70
2022-11-19T20:13:40.082Z,6.50
2022-11-19T20:16:10.830Z,6.70
2022-11-19T20:18:40.405Z,6.90
2022-11-19T20:21:08.310Z,6.70
2022-11-19T20:23:35.220Z,6.70
2022-11-19T20:26:03.338Z,6.70
2022-11-19T20:28:30.359Z,6.60
2022-11-19T20:31:22.967Z,6.97
2022-11-19T20:33:51.742Z,6.80
2022-11-19T20:36:17.987Z,6.70
2022-11-19T20:38:46.136Z,7.10
2022-11-19T20:41:32.426Z,6.60
2022-11-19T20:44:18.265Z,6.60
2022-11-19T20:46:44.608Z,6.90
2022-11-19T20:49:16.951Z,6.87
2022-11-19T20:51:43.844Z,6.97
2022-11-19T20:54:10.296Z,7.00
2022-11-19T20:56:36.869Z,6.73
2022-11-19T20:59:03.783Z,6.70
2022-11-19T21:01:31.494Z,7.00
2022-11-19T21:03:58.269Z,6.90
2022-11-19T21:06:24.563Z,7.10
2022-11-19T21:08:50.801Z,6.90
2022-11-19T21:11:17.070Z,6.80
2022-11-19T21:13:44.382Z,6.90
2022-11-19T21:16:13.873Z,6.90
2022-11-19T21:18:40.383Z,7.17
2022-11-19T21:21:07.057Z,6.80
2022-11-19T21:23:34.083Z,6.73
2022-11-19T21:26:01.722Z,6.70
2022-11-19T21:28:28.894Z,6.70
2022-11-19T21:30:55.162Z,6.70
2022-11-19T21:33:21.406Z,6.67
2022-11-19T21:35:47.677Z,6.80
2022-11-19T21:38:13.919Z,6.70
2022-11-19T21:40:40.356Z,6.50
2022-11-19T21:43:07.444Z,6.60
2022-11-19T21:45:33.822Z,6.70
2022-11-19T21:48:00.041Z,6.87
2022-11-19T21:50:26.369Z,6.90
2022-11-19T21:52:52.591Z,6.73
2022-11-19T21:55:18.898Z,6.57
2022-11-19T21:57:45.122Z,6.70
2022-11-19T22:00:11.799Z,6.63
2022-11-19T22:02:38.034Z,6.83
2022-11-19T22:05:04.404Z,7.00
2022-11-19T22:07:31.327Z,7.00
2022-11-19T22:09:57.602Z,6.90
2022-11-19T22:12:23.902Z,6.80
2022-11-19T22:14:50.165Z,6.60
2022-11-19T22:17:16.717Z,6.73
2022-11-19T22:19:43.020Z,6.77
2022-11-19T22:22:09.247Z,6.60
2022-11-19T22:24:35.485Z,6.60
2022-11-19T22:27:01.741Z,6.60
2022-11-19T22:29:28.015Z,7.07
2022-11-19T22:31:54.282Z,6.77
2022-11-19T22:34:20.503Z,6.80
2022-11-19T22:36:46.762Z,6.70
2022-11-19T22:39:13.511Z,6.90
2022-11-19T22:41:39.785Z,6.57
2022-11-19T22:44:06.011Z,6.50
2022-11-19T22:46:32.279Z,6.40
2022-11-19T22:48:58.506Z,6.80
2022-11-19T22:51:25.507Z,6.90
2022-11-19T22:53:52.499Z,6.90
2022-11-19T22:56:19.785Z,6.70
2022-11-19T22:58:46.412Z,6.60
2022-11-19T23:01:26.671Z,7.10
2022-11-19T23:03:53.169Z,7.10
2022-11-19T23:06:19.767Z,6.63
2022-11-19T23:08:46.430Z,6.90
2022-11-19T23:11:14.547Z,7.10
2022-11-19T23:13:41.726Z,6.90
2022-11-19T23:16:12.733Z,7.03
2022-11-19T23:18:45.685Z,6.60
2022-11-19T23:21:13.171Z,6.90
2022-11-19T23:23:39.457Z,6.70
2022-11-19T23:26:06.370Z,6.90
2022-11-19T23:28:33.206Z,7.10
2022-11-19T23:31:06.667Z,7.17
2022-11-19T23:33:33.192Z,7.10
2022-11-19T23:36:06.657Z,7.10
2022-11-19T23:38:34.240Z,6.90
2022-11-19T23:41:00.715Z,6.70
2022-11-19T23:43:27.688Z,6.90
2022-11-19T23:45:54.498Z,7.30
2022-11-19T23:48:20.769Z,6.80
2022-11-19T23:50:47.206Z,6.90
2022-11-19T23:53:13.498Z,7.43
2022-11-19T23:55:39.725Z,6.90
2022-11-19T23:58:05.970Z,6.80
